Terminal Aerodrome Forecast
Issued by NWS Sterling, VA

Current Version | Previous Version | Graphics & Text | Print | Product List | Glossary On
Versions: 1 2 3 4 5 6 7 8 9 10 11 12 13 14 15 16 17 18 19 20 21 22 23 24 25
000
FTUS41 KLWX 210800 AAA
TAFDCA
TAF AMD
KDCA 210857Z 2109/2206 00000KT P6SM BKN250
     FM211100 00000KT P6SM SCT250
     FM212000 25010KT P6SM VCTS BKN060CB
     FM220000 27007KT P6SM BKN250=

USA.gov is the U.S. government's official web portal to all federal, state and local government web resources and services.